»·PEaware :: N22G KBOI-KSUN

N22G :: KBOI-KSUN

FLIGHT INFORMATION

Flight Status: Arrived
Operator: Privately registered:
United States
More flights under this callsign
Pilot: Ryan L. (28399)
Aircraft: CESSNA 510 CITATION MUSTANG
(C510)
More flights by this aircraft type
Origin: KBOI Boise Air Terminal/Gowen
United States
Destination: KSUN Friedman Meml
United States
More flights between these airports :: More routes between these airports
Route: +BOI3 ROARR PRESN
File this flight plan on PilotEdge
Remarks:
Altitude:
(Current/Filed)
13,000ft
Speed:
(Current/Filed)
285kts
Departed: 05-May-20 12:19 PM
Arrived: 05-May-20 12:43 PM
Distance/Time
Traveled:
84nm/0:24
Distance/Time
To Go:
Arrived

Flight Plot

Page will automatically refresh every two minutes.


Map Options




Map Legend


Flown Route
Filed Route
Departure Airport
Arrival Airport
Navaid (VOR, NDB)
Fix

Horizontal Profiles

Position Reports

Time Latitude Longitude Heading Altitude Ground
Speed
05-May-20 11:43 43.562236 -116.206275 270 2866ft 0kts
05-May-20 11:44 43.562236 -116.206275 270 2866ft 0kts
05-May-20 11:45 43.562236 -116.206275 270 2866ft 0kts
05-May-20 11:46 43.562236 -116.206275 270 2866ft 0kts
05-May-20 11:47 43.562236 -116.206275 270 2866ft 0kts
05-May-20 11:48 43.562236 -116.206275 270 2866ft 0kts
05-May-20 11:49 43.562236 -116.206275 270 2866ft 0kts
05-May-20 11:50 43.562236 -116.206275 270 2866ft 0kts
05-May-20 11:51 43.562236 -116.206275 270 2866ft 0kts
05-May-20 11:52 43.562236 -116.206275 270 2866ft 0kts
05-May-20 11:53 43.562236 -116.206275 270 2866ft 0kts
05-May-20 11:54 43.562236 -116.206275 270 2866ft 0kts
05-May-20 11:55 43.562236 -116.206275 270 2866ft 0kts
05-May-20 11:56 43.562236 -116.206275 270 2866ft 0kts
05-May-20 11:57 43.562236 -116.206275 270 2866ft 0kts
05-May-20 11:58 43.562236 -116.206275 270 2866ft 0kts
05-May-20 11:59 43.562236 -116.206275 270 2866ft 0kts
05-May-20 12:00 43.562236 -116.206275 270 2866ft 0kts
05-May-20 12:01 43.562236 -116.206275 270 2866ft 0kts
05-May-20 12:02 43.562236 -116.206275 270 2866ft 0kts
05-May-20 12:03 43.562075 -116.206251 161 2866ft 3kts
05-May-20 12:04 43.561956 -116.206195 161 2866ft 2kts
05-May-20 12:05 43.561932 -116.206184 161 2866ft 0kts
05-May-20 12:06 43.561932 -116.206184 161 2866ft 0kts
05-May-20 12:07 43.561932 -116.206184 161 2866ft 0kts
05-May-20 12:08 43.561932 -116.206184 161 2866ft 0kts
05-May-20 12:09 43.561932 -116.206184 161 2866ft 0kts
05-May-20 12:10 43.561932 -116.206184 161 2866ft 0kts
05-May-20 12:11 43.561838 -116.206157 171 2866ft 5kts
05-May-20 12:12 43.563132 -116.212644 295 2859ft 21kts
05-May-20 12:13 43.565588 -116.219918 295 2849ft 23kts
05-May-20 12:14 43.568008 -116.226951 294 2842ft 17kts
05-May-20 12:15 43.569853 -116.232387 295 2833ft 12kts
05-May-20 12:16 43.570899 -116.235511 294 2827ft 10kts
05-May-20 12:17 43.570605 -116.236408 200 2826ft 10kts
05-May-20 12:18 43.560651 -116.205666 115 3587ft 162kts
05-May-20 12:19 43.537404 -116.141548 119 7362ft 198kts
05-May-20 12:20 43.513250 -116.072293 119 11348ft 203kts
05-May-20 12:21 43.485476 -115.993890 120 13036ft 289kts
05-May-20 12:22 43.452081 -115.877616 115 13009ft 341kts
05-May-20 12:23 43.414604 -115.756993 116 13009ft 343kts
05-May-20 12:24 43.376728 -115.636601 116 13008ft 343kts
05-May-20 12:25 43.338705 -115.516428 116 13008ft 343kts
05-May-20 12:26 43.300485 -115.396206 116 13008ft 343kts
05-May-20 12:27 43.284013 -115.266414 99 13007ft 349kts
05-May-20 12:28 43.273617 -115.134064 98 13025ft 349kts
05-May-20 12:29 43.262728 -114.999313 97 12953ft 352kts
05-May-20 12:30 43.252101 -114.864938 96 12984ft 351kts
05-May-20 12:31 43.241701 -114.736343 96 11677ft 318kts
05-May-20 12:32 43.231946 -114.617185 96 11019ft 315kts
05-May-20 12:33 43.221484 -114.492107 96 11017ft 326kts
05-May-20 12:34 43.211351 -114.372372 96 10997ft 280kts
05-May-20 12:35 43.247167 -114.310837 7 11010ft 205kts
05-May-20 12:36 43.298097 -114.306573 2 10995ft 156kts
05-May-20 12:37 43.339030 -114.304407 1 10877ft 145kts
05-May-20 12:38 43.380703 -114.301910 10 9673ft 146kts
05-May-20 12:39 43.414923 -114.277906 29 8167ft 142kts
05-May-20 12:40 43.451541 -114.258797 3 6605ft 142kts
05-May-20 12:41 43.484962 -114.277242 323 5529ft 126kts
05-May-20 12:42 43.505295 -114.297141 319 5292ft 8kts
05-May-20 12:43 43.505605 -114.298103 265 5295ft 0kts
05-May-20 12:44 43.505644 -114.299548 309 5298ft 10kts
05-May-20 12:45 43.505698 -114.299614 322 5299ft 0kts
05-May-20 12:46 43.505698 -114.299614 322 5299ft 0kts

Navigation Log

Ident Type
Flight plan parsing failed, navigation log unavailable